sensor_id;sensor_type;location;lat;lon;timestamp;pressure;altitude;pressure_sealevel;temperature;humidity
33845;BME280;20145;43.118;25.694;2023-05-02T00:00:12;99968.81;;;10.99;80.52
33845;BME280;20145;43.118;25.694;2023-05-02T00:02:38;99967.97;;;10.98;80.36
33845;BME280;20145;43.118;25.694;2023-05-02T00:05:04;99967.09;;;11.01;79.58
33845;BME280;20145;43.118;25.694;2023-05-02T00:07:31;99961.97;;;10.93;80.97
33845;BME280;20145;43.118;25.694;2023-05-02T00:09:57;99977.41;;;11.02;80.57
33845;BME280;20145;43.118;25.694;2023-05-02T00:12:22;99979.97;;;11.02;80.24
33845;BME280;20145;43.118;25.694;2023-05-02T00:14:48;99974.84;;;11.01;80.86
33845;BME280;20145;43.118;25.694;2023-05-02T00:17:18;99983.44;;;10.97;80.85
33845;BME280;20145;43.118;25.694;2023-05-02T00:19:44;99968.03;;;10.84;80.37
33845;BME280;20145;43.118;25.694;2023-05-02T00:22:09;99978.31;;;10.89;81.44
33845;BME280;20145;43.118;25.694;2023-05-02T00:24:35;99984.34;;;10.89;81.72
33845;BME280;20145;43.118;25.694;2023-05-02T00:27:01;99980.06;;;10.82;81.57
33845;BME280;20145;43.118;25.694;2023-05-02T00:29:26;99985.25;;;10.76;82.31
33845;BME280;20145;43.118;25.694;2023-05-02T00:31:52;99986.13;;;10.74;82.61
33845;BME280;20145;43.118;25.694;2023-05-02T00:34:17;99983.56;;;10.74;81.98
33845;BME280;20145;43.118;25.694;2023-05-02T00:36:43;99985.28;;;10.71;82.51
33845;BME280;20145;43.118;25.694;2023-05-02T00:39:08;99977.53;;;10.71;82.45
33845;BME280;20145;43.118;25.694;2023-05-02T00:41:35;99988.66;;;10.83;83.31
33845;BME280;20145;43.118;25.694;2023-05-02T00:44:00;99980.91;;;10.86;82.81
33845;BME280;20145;43.118;25.694;2023-05-02T00:46:26;99990.34;;;11.01;82.75
33845;BME280;20145;43.118;25.694;2023-05-02T00:48:52;99976.59;;;10.96;82.75
33845;BME280;20145;43.118;25.694;2023-05-02T00:51:17;99979.16;;;11.00;83.39
33845;BME280;20145;43.118;25.694;2023-05-02T00:53:44;99978.28;;;10.97;82.35
33845;BME280;20145;43.118;25.694;2023-05-02T00:56:09;99980.88;;;10.98;83.09
33845;BME280;20145;43.118;25.694;2023-05-02T00:58:37;99991.19;;;11.06;81.99
33845;BME280;20145;43.118;25.694;2023-05-02T01:14:41;99985.16;;;10.94;81.30
33845;BME280;20145;43.118;25.694;2023-05-02T01:17:11;99986.06;;;10.86;82.24
33845;BME280;20145;43.118;25.694;2023-05-02T01:19:43;99993.00;;;10.84;82.34
33845;BME280;20145;43.118;25.694;2023-05-02T01:22:14;99991.28;;;10.81;82.84
33845;BME280;20145;43.118;25.694;2023-05-02T01:27:23;99990.47;;;10.50;84.89
33845;BME280;20145;43.118;25.694;2023-05-02T01:29:52;99990.50;;;10.47;84.88
33845;BME280;20145;43.118;25.694;2023-05-02T01:32:21;99995.69;;;10.42;85.61
33845;BME280;20145;43.118;25.694;2023-05-02T01:34:48;99987.06;;;10.43;84.62
33845;BME280;20145;43.118;25.694;2023-05-02T01:37:17;99991.34;;;10.49;84.05
33845;BME280;20145;43.118;25.694;2023-05-02T01:39:45;99969.91;;;10.39;84.70
33845;BME280;20145;43.118;25.694;2023-05-02T01:42:11;99987.94;;;10.48;84.65
33845;BME280;20145;43.118;25.694;2023-05-02T01:44:39;100001.66;;;10.55;83.53
33845;BME280;20145;43.118;25.694;2023-05-02T01:47:06;99990.50;;;10.52;82.53
33845;BME280;20145;43.118;25.694;2023-05-02T01:49:34;99995.66;;;10.45;82.31
33845;BME280;20145;43.118;25.694;2023-05-02T01:52:07;100002.53;;;10.39;82.34
33845;BME280;20145;43.118;25.694;2023-05-02T01:54:35;100007.72;;;10.33;81.77
33845;BME280;20145;43.118;25.694;2023-05-02T01:57:04;99990.50;;;10.19;80.88
33845;BME280;20145;43.118;25.694;2023-05-02T01:59:32;100004.25;;;10.14;81.54
33845;BME280;20145;43.118;25.694;2023-05-02T02:02:02;100001.69;;;10.03;80.75
33845;BME280;20145;43.118;25.694;2023-05-02T02:04:29;99957.03;;;9.72;81.07
33845;BME280;20145;43.118;25.694;2023-05-02T02:07:02;99991.41;;;9.85;81.50
33845;BME280;20145;43.118;25.694;2023-05-02T02:09:30;99993.97;;;9.80;82.21
33845;BME280;20145;43.118;25.694;2023-05-02T02:12:06;99994.81;;;9.74;82.27
33845;BME280;20145;43.118;25.694;2023-05-02T02:14:37;99987.94;;;9.63;82.07
33845;BME280;20145;43.118;25.694;2023-05-02T02:17:24;100004.22;;;9.52;81.99
33845;BME280;20145;43.118;25.694;2023-05-02T02:19:53;99996.50;;;9.40;82.45
33845;BME280;20145;43.118;25.694;2023-05-02T02:22:22;99999.91;;;9.36;83.89
33845;BME280;20145;43.118;25.694;2023-05-02T02:24:49;99997.31;;;9.33;82.92
33845;BME280;20145;43.118;25.694;2023-05-02T02:27:17;99995.63;;;9.29;83.61
33845;BME280;20145;43.118;25.694;2023-05-02T02:29:43;99991.28;;;9.19;83.16
33845;BME280;20145;43.118;25.694;2023-05-02T02:32:08;99999.81;;;9.11;83.42
33845;BME280;20145;43.118;25.694;2023-05-02T02:34:34;100001.53;;;9.08;83.99
33845;BME280;20145;43.118;25.694;2023-05-02T02:37:13;100002.38;;;8.99;84.00
33845;BME280;20145;43.118;25.694;2023-05-02T02:45:33;100013.47;;;8.92;83.52
33845;BME280;20145;43.118;25.694;2023-05-02T02:51:06;100015.19;;;8.85;83.88
33845;BME280;20145;43.118;25.694;2023-05-02T02:56:41;99991.06;;;8.69;83.85
33845;BME280;20145;43.118;25.694;2023-05-02T02:59:28;100019.44;;;8.80;84.22
33845;BME280;20145;43.118;25.694;2023-05-02T03:02:06;100023.72;;;8.77;84.37
33845;BME280;20145;43.118;25.694;2023-05-02T03:04:38;100022.84;;;8.76;84.34
33845;BME280;20145;43.118;25.694;2023-05-02T03:07:05;100018.53;;;8.75;83.72
33845;BME280;20145;43.118;25.694;2023-05-02T03:09:45;100022.81;;;8.71;85.07
33845;BME280;20145;43.118;25.694;2023-05-02T03:12:11;100027.09;;;8.69;84.81
33845;BME280;20145;43.118;25.694;2023-05-02T03:14:38;100020.22;;;8.65;84.15
33845;BME280;20145;43.118;25.694;2023-05-02T03:17:04;100027.94;;;8.65;84.31
33845;BME280;20145;43.118;25.694;2023-05-02T03:19:29;100023.63;;;8.63;83.62
33845;BME280;20145;43.118;25.694;2023-05-02T03:21:55;100021.88;;;8.59;84.26
33845;BME280;20145;43.118;25.694;2023-05-02T03:24:21;100033.91;;;8.61;83.82
33845;BME280;20145;43.118;25.694;2023-05-02T03:26:47;100019.31;;;8.59;83.44
33845;BME280;20145;43.118;25.694;2023-05-02T03:29:13;100030.50;;;8.65;83.65
33845;BME280;20145;43.118;25.694;2023-05-02T03:31:39;100029.59;;;8.54;84.16
33845;BME280;20145;43.118;25.694;2023-05-02T03:34:05;100031.28;;;8.49;84.18
33845;BME280;20145;43.118;25.694;2023-05-02T03:36:30;100021.84;;;8.49;84.27
33845;BME280;20145;43.118;25.694;2023-05-02T03:38:56;100026.09;;;8.47;85.05
33845;BME280;20145;43.118;25.694;2023-05-02T03:41:22;100041.63;;;8.61;85.23
33845;BME280;20145;43.118;25.694;2023-05-02T03:43:49;100035.66;;;8.70;85.06
33845;BME280;20145;43.118;25.694;2023-05-02T03:46:15;100040.88;;;8.84;84.88
33845;BME280;20145;43.118;25.694;2023-05-02T03:48:41;100043.56;;;9.04;85.44
33845;BME280;20145;43.118;25.694;2023-05-02T03:51:06;100047.06;;;9.23;84.81
33845;BME280;20145;43.118;25.694;2023-05-02T03:53:34;100044.56;;;9.50;84.01
33845;BME280;20145;43.118;25.694;2023-05-02T03:55:59;100043.78;;;9.74;83.73
33845;BME280;20145;43.118;25.694;2023-05-02T03:58:25;100026.63;;;9.96;83.28
33845;BME280;20145;43.118;25.694;2023-05-02T04:00:51;100048.13;;;10.43;82.32
33845;BME280;20145;43.118;25.694;2023-05-02T04:03:18;100045.44;;;10.93;81.33
33845;BME280;20145;43.118;25.694;2023-05-02T04:05:43;100043.50;;;11.42;79.26
33845;BME280;20145;43.118;25.694;2023-05-02T04:08:09;100043.22;;;11.91;77.02
33845;BME280;20145;43.118;25.694;2023-05-02T04:10:35;100057.47;;;12.42;74.11
33845;BME280;20145;43.118;25.694;2023-05-02T04:13:01;100055.34;;;12.83;72.10
33845;BME280;20145;43.118;25.694;2023-05-02T04:15:28;100056.09;;;12.92;71.54
33845;BME280;20145;43.118;25.694;2023-05-02T04:17:54;100055.88;;;13.14;70.55
33845;BME280;20145;43.118;25.694;2023-05-02T04:20:19;100049.63;;;13.32;70.29
33845;BME280;20145;43.118;25.694;2023-05-02T04:22:45;100060.56;;;13.55;68.76
33845;BME280;20145;43.118;25.694;2023-05-02T04:25:12;100053.28;;;13.79;68.57
33845;BME280;20145;43.118;25.694;2023-05-02T04:27:38;100055.66;;;13.94;68.03
33845;BME280;20145;43.118;25.694;2023-05-02T04:30:04;100032.31;;;13.94;66.73
33845;BME280;20145;43.118;25.694;2023-05-02T04:32:30;100060.13;;;14.37;65.01
33845;BME280;20145;43.118;25.694;2023-05-02T04:34:55;100058.94;;;14.58;63.83
33845;BME280;20145;43.118;25.694;2023-05-02T04:37:21;100061.88;;;14.86;61.63
33845;BME280;20145;43.118;25.694;2023-05-02T04:39:47;100066.50;;;15.17;62.75
33845;BME280;20145;43.118;25.694;2023-05-02T04:42:12;100068.59;;;15.42;58.61
33845;BME280;20145;43.118;25.694;2023-05-02T04:44:38;100062.84;;;15.66;57.72
33845;BME280;20145;43.118;25.694;2023-05-02T04:47:04;100058.97;;;15.86;58.46
33845;BME280;20145;43.118;25.694;2023-05-02T04:49:30;100062.78;;;16.08;56.33
33845;BME280;20145;43.118;25.694;2023-05-02T04:51:56;100059.28;;;16.09;53.96
33845;BME280;20145;43.118;25.694;2023-05-02T04:54:22;100052.91;;;16.21;53.95
33845;BME280;20145;43.118;25.694;2023-05-02T04:56:47;100061.03;;;16.43;54.85
33845;BME280;20145;43.118;25.694;2023-05-02T04:59:13;100066.75;;;16.57;52.16
33845;BME280;20145;43.118;25.694;2023-05-02T05:01:39;100070.66;;;16.73;52.10
33845;BME280;20145;43.118;25.694;2023-05-02T05:04:04;100066.00;;;16.86;51.42
33845;BME280;20145;43.118;25.694;2023-05-02T05:06:30;100058.09;;;16.89;51.88
33845;BME280;20145;43.118;25.694;2023-05-02T05:08:56;100066.34;;;17.05;52.60
33845;BME280;20145;43.118;25.694;2023-05-02T05:11:21;100069.09;;;17.01;51.87
33845;BME280;20145;43.118;25.694;2023-05-02T05:13:47;100068.25;;;16.99;53.29
33845;BME280;20145;43.118;25.694;2023-05-02T05:16:13;100066.53;;;16.99;53.65
33845;BME280;20145;43.118;25.694;2023-05-02T05:18:39;100073.81;;;17.17;54.01
33845;BME280;20145;43.118;25.694;2023-05-02T05:21:05;100073.78;;;17.19;52.66
33845;BME280;20145;43.118;25.694;2023-05-02T05:23:32;100075.56;;;17.19;51.91
33845;BME280;20145;43.118;25.694;2023-05-02T05:25:57;100076.13;;;17.28;51.70
33845;BME280;20145;43.118;25.694;2023-05-02T05:28:23;100070.59;;;17.39;53.24
33845;BME280;20145;43.118;25.694;2023-05-02T05:30:49;100070.59;;;17.39;51.37
33845;BME280;20145;43.118;25.694;2023-05-02T05:33:16;100080.31;;;17.34;51.00
33845;BME280;20145;43.118;25.694;2023-05-02T05:35:41;100078.22;;;17.47;52.30
33845;BME280;20145;43.118;25.694;2023-05-02T05:38:07;100079.88;;;17.49;52.03
33845;BME280;20145;43.118;25.694;2023-05-02T05:40:32;100074.28;;;17.61;52.28
33845;BME280;20145;43.118;25.694;2023-05-02T05:42:58;100075.53;;;17.79;50.22
33845;BME280;20145;43.118;25.694;2023-05-02T05:45:23;100071.25;;;17.75;49.06
33845;BME280;20145;43.118;25.694;2023-05-02T05:47:49;100076.13;;;17.88;48.87
33845;BME280;20145;43.118;25.694;2023-05-02T05:50:15;100066.53;;;17.88;49.29
33845;BME280;20145;43.118;25.694;2023-05-02T05:52:41;100081.44;;;17.84;46.66
33845;BME280;20145;43.118;25.694;2023-05-02T05:55:07;100082.81;;;17.96;47.87
33845;BME280;20145;43.118;25.694;2023-05-02T05:57:32;100081.78;;;18.02;46.96
33845;BME280;20145;43.118;25.694;2023-05-02T05:59:58;100081.53;;;18.10;46.20
33845;BME280;20145;43.118;25.694;2023-05-02T06:02:23;100084.69;;;18.19;46.39
33845;BME280;20145;43.118;25.694;2023-05-02T06:04:49;100087.88;;;18.29;45.22
33845;BME280;20145;43.118;25.694;2023-05-02T06:07:33;100083.47;;;18.56;45.30
33845;BME280;20145;43.118;25.694;2023-05-02T06:09:58;100085.78;;;18.65;44.97
33845;BME280;20145;43.118;25.694;2023-05-02T06:12:24;100093.31;;;18.75;46.90
33845;BME280;20145;43.118;25.694;2023-05-02T06:14:50;100083.75;;;18.73;45.12
33845;BME280;20145;43.118;25.694;2023-05-02T06:17:16;100081.75;;;18.82;44.24
33845;BME280;20145;43.118;25.694;2023-05-02T06:19:41;100075.38;;;18.89;45.18
33845;BME280;20145;43.118;25.694;2023-05-02T06:22:07;100078.75;;;18.92;42.43
33845;BME280;20145;43.118;25.694;2023-05-02T06:24:32;100083.44;;;19.08;43.34
33845;BME280;20145;43.118;25.694;2023-05-02T06:26:58;100087.34;;;19.20;44.23
33845;BME280;20145;43.118;25.694;2023-05-02T06:29:24;100087.41;;;19.42;44.23
33845;BME280;20145;43.118;25.694;2023-05-02T06:31:54;100088.66;;;19.31;41.63
33845;BME280;20145;43.118;25.694;2023-05-02T06:34:19;100083.38;;;19.33;41.19
33845;BME280;20145;43.118;25.694;2023-05-02T06:36:45;100083.03;;;19.42;41.89
33845;BME280;20145;43.118;25.694;2023-05-02T06:39:11;100087.88;;;19.29;40.62
33845;BME280;20145;43.118;25.694;2023-05-02T06:41:36;100082.66;;;19.29;41.04
33845;BME280;20145;43.118;25.694;2023-05-02T06:44:02;100082.06;;;19.45;40.54
33845;BME280;20145;43.118;25.694;2023-05-02T06:46:28;100079.28;;;19.49;39.01
33845;BME280;20145;43.118;25.694;2023-05-02T06:48:55;100079.84;;;19.57;37.09
33845;BME280;20145;43.118;25.694;2023-05-02T06:51:20;100081.53;;;19.58;37.96
33845;BME280;20145;43.118;25.694;2023-05-02T06:53:46;100081.72;;;19.77;37.53
33845;BME280;20145;43.118;25.694;2023-05-02T06:56:12;100090.13;;;19.86;37.15
33845;BME280;20145;43.118;25.694;2023-05-02T06:58:38;100094.94;;;19.96;36.72
33845;BME280;20145;43.118;25.694;2023-05-02T07:01:03;100094.31;;;19.90;37.77
33845;BME280;20145;43.118;25.694;2023-05-02T07:03:29;100094.69;;;20.02;37.23
33845;BME280;20145;43.118;25.694;2023-05-02T07:05:54;100086.59;;;20.09;36.59
33845;BME280;20145;43.118;25.694;2023-05-02T07:08:21;100090.06;;;20.09;34.86
33845;BME280;20145;43.118;25.694;2023-05-02T07:10:48;100088.59;;;20.24;36.06
33845;BME280;20145;43.118;25.694;2023-05-02T07:13:14;100087.22;;;20.36;36.49
33845;BME280;20145;43.118;25.694;2023-05-02T07:15:41;100091.25;;;20.44;36.14
33845;BME280;20145;43.118;25.694;2023-05-02T07:18:07;100089.28;;;20.49;36.66
33845;BME280;20145;43.118;25.694;2023-05-02T07:20:32;100084.22;;;20.45;33.75
33845;BME280;20145;43.118;25.694;2023-05-02T07:22:58;100086.91;;;20.43;34.73
33845;BME280;20145;43.118;25.694;2023-05-02T07:25:24;100091.91;;;20.49;33.78
33845;BME280;20145;43.118;25.694;2023-05-02T07:27:49;100086.84;;;20.45;33.58
33845;BME280;20145;43.118;25.694;2023-05-02T07:30:15;100080.88;;;20.41;32.92
33845;BME280;20145;43.118;25.694;2023-05-02T07:32:40;100091.97;;;20.48;34.00
33845;BME280;20145;43.118;25.694;2023-05-02T07:35:06;100087.63;;;20.47;33.72
33845;BME280;20145;43.118;25.694;2023-05-02T07:37:33;100088.06;;;20.58;32.73
33845;BME280;20145;43.118;25.694;2023-05-02T07:40:02;100089.66;;;20.62;32.90
33845;BME280;20145;43.118;25.694;2023-05-02T07:42:31;100090.38;;;20.66;33.57
33845;BME280;20145;43.118;25.694;2023-05-02T07:44:57;100088.84;;;20.81;33.28
33845;BME280;20145;43.118;25.694;2023-05-02T07:47:24;100083.56;;;20.82;32.92
33845;BME280;20145;43.118;25.694;2023-05-02T07:49:54;100087.03;;;20.83;30.32
33845;BME280;20145;43.118;25.694;2023-05-02T07:52:20;100080.09;;;20.82;30.72
33845;BME280;20145;43.118;25.694;2023-05-02T07:54:49;100090.53;;;21.02;30.97
33845;BME280;20145;43.118;25.694;2023-05-02T07:57:15;100085.38;;;21.20;31.47
33845;BME280;20145;43.118;25.694;2023-05-02T07:59:40;100071.66;;;21.14;31.64
33845;BME280;20145;43.118;25.694;2023-05-02T08:02:06;100085.69;;;21.32;31.79
33845;BME280;20145;43.118;25.694;2023-05-02T08:04:32;100080.44;;;21.32;31.36
33845;BME280;20145;43.118;25.694;2023-05-02T08:06:58;100069.63;;;21.20;30.72
33845;BME280;20145;43.118;25.694;2023-05-02T08:09:25;100075.03;;;21.37;30.41
33845;BME280;20145;43.118;25.694;2023-05-02T08:11:50;100071.66;;;21.14;28.55
33845;BME280;20145;43.118;25.694;2023-05-02T08:14:16;100072.44;;;21.35;30.49
33845;BME280;20145;43.118;25.694;2023-05-02T08:16:42;100070.53;;;21.39;30.22
33845;BME280;20145;43.118;25.694;2023-05-02T08:19:08;100073.50;;;21.50;30.70
33845;BME280;20145;43.118;25.694;2023-05-02T08:21:34;100070.69;;;21.55;30.95
33845;BME280;20145;43.118;25.694;2023-05-02T08:24:00;100067.84;;;21.59;31.01
33845;BME280;20145;43.118;25.694;2023-05-02T08:26:26;100079.34;;;21.76;30.15
33845;BME280;20145;43.118;25.694;2023-05-02T08:28:53;100083.50;;;21.80;31.17
33845;BME280;20145;43.118;25.694;2023-05-02T08:31:20;100079.69;;;21.87;29.90
33845;BME280;20145;43.118;25.694;2023-05-02T08:33:46;100069.75;;;21.75;29.26
33845;BME280;20145;43.118;25.694;2023-05-02T08:36:13;100070.84;;;21.88;30.49
33845;BME280;20145;43.118;25.694;2023-05-02T08:38:39;100072.28;;;21.95;31.72
33845;BME280;20145;43.118;25.694;2023-05-02T08:41:12;100075.66;;;21.97;29.58
33845;BME280;20145;43.118;25.694;2023-05-02T08:43:39;100077.38;;;21.98;29.80
33845;BME280;20145;43.118;25.694;2023-05-02T08:46:05;100072.03;;;22.00;30.46
33845;BME280;20145;43.118;25.694;2023-05-02T08:48:39;100078.22;;;21.99;30.54
33845;BME280;20145;43.118;25.694;2023-05-02T08:51:15;100079.84;;;22.01;29.41
33845;BME280;20145;43.118;25.694;2023-05-02T08:53:42;100078.63;;;22.09;30.13
33845;BME280;20145;43.118;25.694;2023-05-02T08:56:09;100075.09;;;22.10;27.22
33845;BME280;20145;43.118;25.694;2023-05-02T08:58:36;100066.34;;;22.09;29.12
33845;BME280;20145;43.118;25.694;2023-05-02T09:01:14;100061.50;;;22.19;30.48
33845;BME280;20145;43.118;25.694;2023-05-02T09:03:42;100066.47;;;22.25;29.26
33845;BME280;20145;43.118;25.694;2023-05-02T09:06:11;100064.25;;;22.16;30.60
33845;BME280;20145;43.118;25.694;2023-05-02T09:08:40;100065.69;;;22.23;30.23
33845;BME280;20145;43.118;25.694;2023-05-02T09:11:08;100058.06;;;22.17;29.17
33845;BME280;20145;43.118;25.694;2023-05-02T09:13:41;100052.78;;;22.18;27.90
33845;BME280;20145;43.118;25.694;2023-05-02T09:16:21;100055.25;;;22.21;28.85
33845;BME280;20145;43.118;25.694;2023-05-02T09:18:49;100044.72;;;22.39;29.73
33845;BME280;20145;43.118;25.694;2023-05-02T09:21:21;100054.41;;;22.38;29.96
33845;BME280;20145;43.118;25.694;2023-05-02T09:23:50;100049.81;;;22.42;28.84
33845;BME280;20145;43.118;25.694;2023-05-02T09:28:52;100045.59;;;22.39;30.66
33845;BME280;20145;43.118;25.694;2023-05-02T09:31:19;100038.19;;;22.47;27.76
33845;BME280;20145;43.118;25.694;2023-05-02T09:33:46;100041.00;;;22.60;28.98
33845;BME280;20145;43.118;25.694;2023-05-02T09:36:14;100036.88;;;22.72;31.30
33845;BME280;20145;43.118;25.694;2023-05-02T09:38:41;100036.03;;;22.71;29.81
33845;BME280;20145;43.118;25.694;2023-05-02T09:41:07;100037.53;;;22.60;27.07
33845;BME280;20145;43.118;25.694;2023-05-02T09:43:33;100026.56;;;22.52;29.52
33845;BME280;20145;43.118;25.694;2023-05-02T09:48:28;100044.50;;;22.43;29.78
33845;BME280;20145;43.118;25.694;2023-05-02T09:50:54;100034.47;;;22.34;27.70
33845;BME280;20145;43.118;25.694;2023-05-02T09:53:20;100036.00;;;22.38;29.16
33845;BME280;20145;43.118;25.694;2023-05-02T09:55:46;100034.16;;;22.40;28.01
33845;BME280;20145;43.118;25.694;2023-05-02T09:58:22;100032.19;;;22.44;27.83
33845;BME280;20145;43.118;25.694;2023-05-02T10:00:49;100028.09;;;22.38;28.19
33845;BME280;20145;43.118;25.694;2023-05-02T10:03:16;100018.22;;;22.43;28.88
33845;BME280;20145;43.118;25.694;2023-05-02T10:05:44;100022.81;;;22.56;30.32
33845;BME280;20145;43.118;25.694;2023-05-02T10:08:10;100022.59;;;22.60;30.08
33845;BME280;20145;43.118;25.694;2023-05-02T10:10:40;100014.22;;;22.69;29.14
33845;BME280;20145;43.118;25.694;2023-05-02T10:13:09;100022.50;;;22.79;28.98
33845;BME280;20145;43.118;25.694;2023-05-02T10:15:41;100024.91;;;22.66;28.27
33845;BME280;20145;43.118;25.694;2023-05-02T10:18:11;100020.13;;;22.57;28.83
33845;BME280;20145;43.118;25.694;2023-05-02T10:20:43;100014.38;;;22.66;29.87
33845;BME280;20145;43.118;25.694;2023-05-02T10:23:14;100014.66;;;22.78;29.68
33845;BME280;20145;43.118;25.694;2023-05-02T10:25:40;100011.44;;;22.73;29.96
33845;BME280;20145;43.118;25.694;2023-05-02T10:28:06;100002.22;;;22.64;27.16
33845;BME280;20145;43.118;25.694;2023-05-02T10:30:34;100009.81;;;22.70;29.86
33845;BME280;20145;43.118;25.694;2023-05-02T10:33:00;99975.25;;;22.60;30.96
33845;BME280;20145;43.118;25.694;2023-05-02T10:35:27;99999.31;;;22.86;29.66
33845;BME280;20145;43.118;25.694;2023-05-02T10:37:55;100000.78;;;22.91;29.52
33845;BME280;20145;43.118;25.694;2023-05-02T10:40:21;99992.81;;;22.93;29.58
33845;BME280;20145;43.118;25.694;2023-05-02T10:42:48;99997.75;;;22.99;29.70
33845;BME280;20145;43.118;25.694;2023-05-02T10:45:35;99997.69;;;23.01;28.34
33845;BME280;20145;43.118;25.694;2023-05-02T10:48:27;99994.75;;;22.89;27.68
33845;BME280;20145;43.118;25.694;2023-05-02T10:53:35;99994.38;;;23.13;30.02
33845;BME280;20145;43.118;25.694;2023-05-02T10:56:12;99996.00;;;23.15;30.74
33845;BME280;20145;43.118;25.694;2023-05-02T10:58:45;99991.84;;;23.11;28.28
33845;BME280;20145;43.118;25.694;2023-05-02T11:04:05;99983.94;;;22.96;28.90
33845;BME280;20145;43.118;25.694;2023-05-02T11:06:33;99985.56;;;22.98;28.94
33845;BME280;20145;43.118;25.694;2023-05-02T11:11:47;99981.28;;;22.96;29.35
33845;BME280;20145;43.118;25.694;2023-05-02T11:19:31;99976.34;;;22.89;28.94
33845;BME280;20145;43.118;25.694;2023-05-02T11:24:51;99980.66;;;22.90;28.26
33845;BME280;20145;43.118;25.694;2023-05-02T11:30:02;99982.28;;;22.93;24.41
33845;BME280;20145;43.118;25.694;2023-05-02T11:35:19;99982.06;;;22.98;26.71
33845;BME280;20145;43.118;25.694;2023-05-02T11:37:58;99979.16;;;23.02;26.79
33845;BME280;20145;43.118;25.694;2023-05-02T11:40:25;99973.66;;;23.07;26.54
33845;BME280;20145;43.118;25.694;2023-05-02T11:42:52;99976.78;;;23.13;27.54
33845;BME280;20145;43.118;25.694;2023-05-02T11:45:18;99969.84;;;23.12;26.30
33845;BME280;20145;43.118;25.694;2023-05-02T11:47:46;99958.66;;;23.09;25.41
33845;BME280;20145;43.118;25.694;2023-05-02T11:50:13;99959.56;;;23.08;24.28
33845;BME280;20145;43.118;25.694;2023-05-02T11:52:41;99969.84;;;23.12;25.87
33845;BME280;20145;43.118;25.694;2023-05-02T11:55:11;99958.47;;;23.12;25.15
33845;BME280;20145;43.118;25.694;2023-05-02T11:57:37;99957.09;;;23.05;26.38
33845;BME280;20145;43.118;25.694;2023-05-02T12:00:03;99947.09;;;23.11;27.17
33845;BME280;20145;43.118;25.694;2023-05-02T12:02:40;99960.41;;;23.08;25.34
33845;BME280;20145;43.118;25.694;2023-05-02T12:05:07;99954.28;;;23.08;25.75
33845;BME280;20145;43.118;25.694;2023-05-02T12:07:38;99910.72;;;22.86;26.49
33845;BME280;20145;43.118;25.694;2023-05-02T12:10:05;99943.59;;;23.11;26.72
33845;BME280;20145;43.118;25.694;2023-05-02T12:12:31;99934.50;;;23.16;27.65
33845;BME280;20145;43.118;25.694;2023-05-02T12:14:57;99940.13;;;23.26;27.62
33845;BME280;20145;43.118;25.694;2023-05-02T12:17:22;99935.88;;;23.24;26.94
33845;BME280;20145;43.118;25.694;2023-05-02T12:19:49;99942.91;;;23.07;25.85
33845;BME280;20145;43.118;25.694;2023-05-02T12:22:15;99930.72;;;22.89;24.43
33845;BME280;20145;43.118;25.694;2023-05-02T12:24:42;99934.75;;;22.96;25.45
33845;BME280;20145;43.118;25.694;2023-05-02T12:27:15;99899.66;;;22.80;24.58
33845;BME280;20145;43.118;25.694;2023-05-02T12:29:47;99927.47;;;23.01;26.42
33845;BME280;20145;43.118;25.694;2023-05-02T12:32:13;99926.78;;;23.13;27.49
33845;BME280;20145;43.118;25.694;2023-05-02T12:34:39;99918.38;;;23.23;26.52
33845;BME280;20145;43.118;25.694;2023-05-02T12:37:06;99926.34;;;23.37;26.39
33845;BME280;20145;43.118;25.694;2023-05-02T12:39:39;99917.69;;;23.35;25.31
33845;BME280;20145;43.118;25.694;2023-05-02T12:42:13;99924.97;;;23.30;25.22
33845;BME280;20145;43.118;25.694;2023-05-02T12:44:40;99904.03;;;23.28;26.88
33845;BME280;20145;43.118;25.694;2023-05-02T12:47:07;99901.88;;;23.19;25.92
33845;BME280;20145;43.118;25.694;2023-05-02T12:49:55;99896.63;;;23.19;25.26
33845;BME280;20145;43.118;25.694;2023-05-02T12:52:49;99899.78;;;23.26;27.83
33845;BME280;20145;43.118;25.694;2023-05-02T12:55:25;99892.28;;;23.34;27.70
33845;BME280;20145;43.118;25.694;2023-05-02T13:00:25;99879.31;;;23.31;25.38
33845;BME280;20145;43.118;25.694;2023-05-02T13:02:51;99888.88;;;23.32;25.65
33845;BME280;20145;43.118;25.694;2023-05-02T13:05:19;99886.41;;;23.45;28.21
33845;BME280;20145;43.118;25.694;2023-05-02T13:07:45;99884.91;;;23.55;27.49
33845;BME280;20145;43.118;25.694;2023-05-02T13:10:11;99880.41;;;23.57;27.47
33845;BME280;20145;43.118;25.694;2023-05-02T13:12:38;99879.56;;;23.56;26.83
33845;BME280;20145;43.118;25.694;2023-05-02T13:15:04;99870.66;;;23.59;26.76
33845;BME280;20145;43.118;25.694;2023-05-02T13:17:31;99877.72;;;23.58;26.34
33845;BME280;20145;43.118;25.694;2023-05-02T13:19:56;99871.69;;;23.56;25.07
33845;BME280;20145;43.118;25.694;2023-05-02T13:22:25;99854.44;;;23.51;27.17
33845;BME280;20145;43.118;25.694;2023-05-02T13:24:51;99877.53;;;23.62;26.50
33845;BME280;20145;43.118;25.694;2023-05-02T13:27:17;99861.78;;;23.60;26.54
33845;BME280;20145;43.118;25.694;2023-05-02T13:29:46;99869.97;;;23.55;24.93
33845;BME280;20145;43.118;25.694;2023-05-02T13:32:13;99871.56;;;23.58;26.33
33845;BME280;20145;43.118;25.694;2023-05-02T13:34:38;99860.28;;;23.56;26.12
33845;BME280;20145;43.118;25.694;2023-05-02T13:37:04;99861.97;;;23.57;28.48
33845;BME280;20145;43.118;25.694;2023-05-02T13:39:30;99868.75;;;23.61;27.86
33845;BME280;20145;43.118;25.694;2023-05-02T13:41:55;99858.31;;;23.59;27.98
33845;BME280;20145;43.118;25.694;2023-05-02T13:44:21;99861.72;;;23.62;28.04